Time;durP1;ratioP1;P1;durP2;ratioP2;P2;SDS_P1;SDS_P2;PMS_P1;PMS_P2;Temp;Humidity;BMP_temperature;BMP_pressure;BME280_temperature;BME280_humidity;BME280_pressure;Samples;Min_cycle;Max_cycle;Signal;HPM_P1;HPM_P2
2023/01/13 00:00:11;;;;;;;21.63;4.60;;;8.60;99.90;;;;;;5074173;28;20036;-73
2023/01/13 00:02:38;;;;;;;22.70;5.13;;;8.60;99.90;;;;;;5074610;28;20079;-72
2023/01/13 00:05:06;;;;;;;18.00;4.55;;;8.40;99.90;;;;;;5073912;28;20489;-73
2023/01/13 00:07:34;;;;;;;16.48;4.18;;;8.40;99.90;;;;;;5073369;28;20075;-72
2023/01/13 00:10:01;;;;;;;26.13;4.90;;;8.30;99.90;;;;;;5073427;28;20059;-72
2023/01/13 00:12:28;;;;;;;17.10;5.53;;;8.30;99.90;;;;;;5072887;28;20438;-74
2023/01/13 00:14:55;;;;;;;26.38;4.80;;;8.20;99.90;;;;;;5073201;28;20056;-71
2023/01/13 00:17:22;;;;;;;22.45;5.97;;;8.10;99.90;;;;;;5074219;28;20059;-73
2023/01/13 00:19:49;;;;;;;24.95;5.82;;;8.10;99.90;;;;;;5072261;28;20048;-73
2023/01/13 00:22:17;;;;;;;29.40;6.30;;;8.00;99.90;;;;;;5073030;28;20128;-73
2023/01/13 00:24:45;;;;;;;21.45;5.43;;;8.00;99.90;;;;;;5072871;28;20431;-73
2023/01/13 00:27:12;;;;;;;18.05;5.32;;;8.00;99.90;;;;;;5072457;28;20066;-74
2023/01/13 00:29:39;;;;;;;21.90;6.50;;;7.90;99.90;;;;;;5073838;28;20049;-73
2023/01/13 00:32:06;;;;;;;21.95;5.60;;;7.90;99.90;;;;;;5073640;28;20040;-73
2023/01/13 00:34:32;;;;;;;25.63;6.88;;;7.80;99.90;;;;;;5072256;28;20048;-73
2023/01/13 00:36:59;;;;;;;22.08;6.28;;;7.80;99.90;;;;;;5072492;28;20404;-73
2023/01/13 00:39:26;;;;;;;29.55;7.00;;;7.90;99.90;;;;;;5072132;28;20047;-73
2023/01/13 00:44:39;;;;;;;27.75;7.18;;;7.80;99.90;;;;;;5072563;28;20056;-71
2023/01/13 00:47:06;;;;;;;20.27;6.15;;;7.80;99.90;;;;;;5073583;28;20428;-72
2023/01/13 00:49:33;;;;;;;39.60;7.78;;;7.80;99.90;;;;;;5073728;28;20526;-73
2023/01/13 00:52:00;;;;;;;27.25;7.38;;;7.70;99.90;;;;;;5070810;28;20119;-73
2023/01/13 00:54:27;;;;;;;35.28;6.93;;;7.70;99.90;;;;;;5073489;28;20044;-71
2023/01/13 00:56:55;;;;;;;27.17;7.10;;;7.70;99.90;;;;;;5069834;28;20048;-71
2023/01/13 00:59:22;;;;;;;31.27;6.95;;;7.70;99.90;;;;;;5073242;28;20052;-74
2023/01/13 01:01:49;;;;;;;26.45;5.97;;;7.60;99.90;;;;;;5073288;28;20123;-72
2023/01/13 01:04:15;;;;;;;21.58;6.53;;;7.60;99.90;;;;;;5071969;28;20056;-73
2023/01/13 01:06:42;;;;;;;20.48;6.38;;;7.60;99.90;;;;;;5072050;28;20104;-72
2023/01/13 01:09:13;;;;;;;21.90;5.80;;;7.50;99.90;;;;;;5071036;28;20052;-72
2023/01/13 01:11:40;;;;;;;;;;;7.60;99.90;;;;;;5072320;28;20412;-72
2023/01/13 01:14:11;;;;;;;30.38;6.82;;;7.60;99.90;;;;;;5072983;28;19924;-72
2023/01/13 01:16:39;;;;;;;41.42;7.78;;;7.50;99.90;;;;;;5055078;28;20405;-73
2023/01/13 01:19:07;;;;;;;23.80;6.70;;;7.50;99.90;;;;;;5071624;28;20045;-73
2023/01/13 01:21:35;;;;;;;32.40;7.22;;;7.50;99.90;;;;;;5071403;28;20044;-73
2023/01/13 01:24:03;;;;;;;30.30;7.35;;;7.40;99.90;;;;;;5070968;28;20052;-70
2023/01/13 01:26:31;;;;;;;28.85;6.95;;;7.40;99.90;;;;;;5071639;28;20496;-69
2023/01/13 01:29:00;;;;;;;24.10;7.47;;;7.50;99.90;;;;;;5070449;28;20049;-69
2023/01/13 01:31:31;;;;;;;31.08;7.47;;;7.50;99.90;;;;;;5070751;28;20057;-69
2023/01/13 01:33:58;;;;;;;29.10;6.38;;;7.40;99.90;;;;;;5072655;28;20083;-69
2023/01/13 01:36:28;;;;;;;30.83;6.75;;;7.40;99.90;;;;;;5069803;28;20922;-69
2023/01/13 01:38:56;;;;;;;27.23;6.43;;;7.40;99.90;;;;;;5071118;28;20496;-69
2023/01/13 01:41:25;;;;;;;25.48;6.75;;;7.40;99.90;;;;;;5070962;28;20102;-68
2023/01/13 01:43:58;;;;;;;28.80;6.55;;;7.40;99.90;;;;;;5068627;28;20049;-69
2023/01/13 01:46:27;;;;;;;31.98;7.78;;;7.40;99.90;;;;;;5070495;28;20059;-68
2023/01/13 01:49:00;;;;;;;33.53;7.47;;;7.60;99.90;;;;;;5071008;28;20045;-69
2023/01/13 01:51:31;;;;;;;26.63;7.10;;;7.50;99.90;;;;;;5071619;28;20060;-68
2023/01/13 01:54:01;;;;;;;25.00;6.25;;;7.50;99.90;;;;;;5069567;28;20055;-68
2023/01/13 01:56:29;;;;;;;34.27;8.40;;;7.50;99.90;;;;;;5068871;28;20049;-68
2023/01/13 01:58:56;;;;;;;27.85;7.30;;;7.40;99.90;;;;;;5088143;28;20357;-69
2023/01/13 02:01:22;;;;;;;32.60;6.25;;;7.40;99.90;;;;;;5073946;28;20036;-68
2023/01/13 02:03:59;;;;;;;31.85;7.57;;;7.30;99.90;;;;;;5074393;28;20109;-68
2023/01/13 02:06:27;;;;;;;30.08;7.82;;;7.40;99.90;;;;;;5090869;28;20048;-69
2023/01/13 02:08:54;;;;;;;27.98;6.40;;;7.40;99.90;;;;;;5071687;28;20047;-68
2023/01/13 02:14:18;;;;;;;26.73;6.28;;;7.50;99.90;;;;;;5071934;28;20074;-67
2023/01/13 02:17:03;;;;;;;24.63;6.45;;;7.60;99.90;;;;;;5074284;28;20052;-69
2023/01/13 02:20:03;;;;;;;24.60;6.20;;;7.70;99.90;;;;;;5071567;28;20062;-69
2023/01/13 02:22:49;;;;;;;19.67;6.05;;;7.60;99.90;;;;;;5086060;28;20411;-69
2023/01/13 02:25:46;;;;;;;26.42;6.35;;;7.60;99.90;;;;;;5090362;28;20112;-69
2023/01/13 02:28:27;;;;;;;22.85;5.53;;;7.70;99.90;;;;;;5089952;28;20470;-68
2023/01/13 02:34:01;;;;;;;27.35;7.13;;;7.70;99.90;;;;;;5090903;28;20051;-68
2023/01/13 02:36:36;;;;;;;29.70;7.75;;;7.70;99.90;;;;;;5073103;28;20056;-73
2023/01/13 02:39:09;;;;;;;29.63;7.22;;;7.70;99.90;;;;;;5090837;28;20040;-73
2023/01/13 02:44:28;;;;;;;30.42;7.00;;;7.70;99.90;;;;;;5074128;28;20063;-73
2023/01/13 02:47:01;;;;;;;24.90;7.17;;;7.70;99.90;;;;;;5073722;28;20044;-73
2023/01/13 02:49:34;;;;;;;39.47;7.18;;;7.60;99.90;;;;;;5091970;28;20048;-73
2023/01/13 02:52:08;;;;;;;31.55;6.82;;;7.60;99.90;;;;;;5074452;28;20048;-73
2023/01/13 02:54:38;;;;;;;23.45;6.43;;;7.50;99.90;;;;;;5072664;28;20109;-73
2023/01/13 02:57:08;;;;;;;29.45;7.07;;;7.60;99.90;;;;;;5072007;28;20043;-73
2023/01/13 02:59:37;;;;;;;33.33;6.85;;;7.50;99.90;;;;;;5092022;28;20055;-73
2023/01/13 03:02:07;;;;;;;31.70;7.30;;;7.60;99.90;;;;;;5073474;28;20085;-73
2023/01/13 03:04:58;;;;;;;25.65;6.22;;;7.70;99.90;;;;;;5074483;28;20059;-73
2023/01/13 03:07:54;;;;;;;34.58;6.57;;;7.80;99.90;;;;;;5059607;28;20048;-72
2023/01/13 03:10:32;;;;;;;24.17;6.35;;;7.80;99.90;;;;;;5072566;28;20093;-73
2023/01/13 03:13:08;;;;;;;27.58;6.03;;;7.90;99.90;;;;;;5073100;28;20127;-73
2023/01/13 03:15:46;;;;;;;26.27;6.70;;;7.90;99.90;;;;;;5073099;28;20056;-74
2023/01/13 03:18:24;;;;;;;24.92;6.70;;;7.80;99.90;;;;;;5092158;28;20047;-74
2023/01/13 03:21:01;;;;;;;27.88;6.25;;;7.90;99.90;;;;;;5074146;28;20135;-69
2023/01/13 03:23:34;;;;;;;21.10;6.07;;;7.70;99.90;;;;;;5074604;28;20050;-69
2023/01/13 03:26:08;;;;;;;30.08;8.00;;;7.70;99.90;;;;;;5075314;28;20509;-69
2023/01/13 03:28:42;;;;;;;29.67;5.43;;;7.70;99.90;;;;;;5095188;28;20040;-69
2023/01/13 03:31:15;;;;;;;26.10;6.25;;;7.70;99.90;;;;;;5077139;28;20503;-68
2023/01/13 03:33:48;;;;;;;26.63;7.25;;;7.70;99.90;;;;;;5094904;28;20496;-68
2023/01/13 03:36:17;;;;;;;18.15;5.28;;;7.80;99.90;;;;;;5094483;28;20044;-69
2023/01/13 03:38:49;;;;;;;21.33;5.90;;;7.80;99.90;;;;;;5095034;28;20059;-69
2023/01/13 03:41:22;;;;;;;22.27;6.47;;;7.80;99.90;;;;;;5093292;28;20040;-68
2023/01/13 03:46:43;;;;;;;21.90;5.88;;;7.90;99.90;;;;;;5092926;28;20040;-69
2023/01/13 03:49:15;;;;;;;28.27;6.05;;;8.00;99.90;;;;;;5094715;28;20051;-69
2023/01/13 03:51:48;;;;;;;23.92;6.00;;;8.00;99.90;;;;;;5094202;28;20048;-69
2023/01/13 03:54:17;;;;;;;23.15;6.15;;;8.00;99.90;;;;;;5076713;28;20064;-68
2023/01/13 03:56:48;;;;;;;31.48;5.82;;;8.10;99.90;;;;;;5076515;28;20499;-69
2023/01/13 03:59:18;;;;;;;28.77;5.65;;;7.90;99.90;;;;;;5074447;28;20052;-69
2023/01/13 04:01:51;;;;;;;23.20;5.97;;;7.90;99.90;;;;;;5076235;28;20044;-69
2023/01/13 04:04:25;;;;;;;23.63;6.10;;;7.90;99.90;;;;;;5076007;28;20055;-70
2023/01/13 04:06:57;;;;;;;22.45;6.07;;;7.90;99.90;;;;;;5076783;28;20056;-69
2023/01/13 04:09:31;;;;;;;26.95;5.80;;;7.90;99.90;;;;;;5094524;28;20453;-69
2023/01/13 04:12:04;;;;;;;23.35;5.90;;;7.90;99.90;;;;;;5074540;28;20056;-69
2023/01/13 04:14:31;;;;;;;20.35;5.50;;;7.80;99.90;;;;;;5074495;28;20044;-70
2023/01/13 04:16:58;;;;;;;21.80;5.50;;;7.80;99.90;;;;;;5076286;28;20052;-68
2023/01/13 04:19:27;;;;;;;23.67;5.55;;;7.70;99.90;;;;;;5075538;28;20051;-68
2023/01/13 04:21:53;;;;;;;29.17;6.78;;;7.70;99.90;;;;;;5094041;28;20061;-68
2023/01/13 04:24:20;;;;;;;29.58;6.35;;;7.70;99.90;;;;;;5093877;28;20183;-68
2023/01/13 04:26:47;;;;;;;32.95;6.57;;;7.70;99.90;;;;;;5093770;28;20044;-68
2023/01/13 04:29:14;;;;;;;29.95;5.93;;;7.60;99.90;;;;;;5075974;28;20462;-68
2023/01/13 04:31:41;;;;;;;28.25;6.13;;;7.60;99.90;;;;;;5075198;28;20048;-69
2023/01/13 04:34:09;;;;;;;26.23;6.25;;;7.60;99.90;;;;;;5075367;28;20044;-68
2023/01/13 04:36:38;;;;;;;17.67;5.35;;;7.60;99.90;;;;;;5076099;28;20055;-69
2023/01/13 04:39:05;;;;;;;24.08;6.65;;;7.70;99.90;;;;;;5091160;28;20055;-68
2023/01/13 04:41:56;;;;;;;33.20;7.20;;;7.70;99.90;;;;;;5093790;28;20051;-68
2023/01/13 04:44:19;;;;;;;24.60;6.00;;;7.70;99.90;;;;;;5092488;28;20123;-68
2023/01/13 04:46:46;;;;;;;24.15;6.20;;;7.80;99.90;;;;;;5091111;28;20048;-68
2023/01/13 04:49:13;;;;;;;23.98;6.35;;;7.90;99.90;;;;;;5075625;28;20454;-70
2023/01/13 04:51:42;;;;;;;26.88;5.75;;;7.90;99.90;;;;;;5093437;28;20488;-68
2023/01/13 04:54:09;;;;;;;19.83;6.13;;;8.00;99.90;;;;;;5074630;28;20059;-69
2023/01/13 04:56:36;;;;;;;21.33;6.20;;;8.00;99.90;;;;;;5093744;28;20050;-68
2023/01/13 04:59:03;;;;;;;25.02;6.15;;;8.10;99.90;;;;;;5074988;28;20526;-69
2023/01/13 05:01:31;;;;;;;26.67;6.47;;;8.10;99.90;;;;;;5074628;28;20063;-69
2023/01/13 05:03:58;;;;;;;15.57;5.35;;;8.10;99.90;;;;;;5075307;28;20549;-69
2023/01/13 05:06:24;;;;;;;19.38;5.97;;;8.10;99.90;;;;;;5093615;28;20051;-69
2023/01/13 05:08:53;;;;;;;22.98;6.45;;;8.10;99.90;;;;;;5074817;28;20117;-69
2023/01/13 05:17:00;;;;;;;17.77;5.60;;;8.40;99.90;;;;;;5074234;28;20078;-70
2023/01/13 05:19:27;;;;;;;23.10;5.22;;;8.30;99.90;;;;;;5093085;28;20048;-69
2023/01/13 05:27:25;;;;;;;20.60;4.93;;;8.20;99.90;;;;;;5073733;28;20048;-68
2023/01/13 05:29:52;;;;;;;19.65;5.95;;;8.20;99.90;;;;;;5063764;28;20462;-68
2023/01/13 05:32:19;;;;;;;22.10;5.07;;;8.30;99.90;;;;;;5078938;28;20415;-69
2023/01/13 05:34:46;;;;;;;21.80;6.00;;;8.30;99.90;;;;;;5068317;28;20471;-68
2023/01/13 05:37:13;;;;;;;26.45;6.45;;;8.30;99.90;;;;;;5083714;28;20052;-69
2023/01/13 05:45:08;;;;;;;19.50;5.68;;;8.30;99.90;;;;;;5043302;28;20048;-69
2023/01/13 05:47:37;;;;;;;20.75;4.18;;;8.40;99.90;;;;;;5085237;28;20051;-68
2023/01/13 05:50:04;;;;;;;17.77;4.43;;;8.40;99.90;;;;;;5070621;28;20055;-70
2023/01/13 05:52:32;;;;;;;26.13;5.38;;;8.40;99.90;;;;;;5068724;28;20055;-70
2023/01/13 05:55:00;;;;;;;24.05;5.38;;;8.40;99.90;;;;;;5087312;28;20477;-71
2023/01/13 05:57:27;;;;;;;24.05;4.90;;;8.30;99.90;;;;;;5070309;28;20493;-69
2023/01/13 05:59:54;;;;;;;19.60;4.93;;;8.40;99.90;;;;;;5086326;28;20062;-70
2023/01/13 06:02:20;;;;;;;17.00;4.65;;;8.40;99.90;;;;;;5069431;28;20039;-69
2023/01/13 06:04:47;;;;;;;18.73;4.53;;;8.40;99.90;;;;;;5087612;28;20052;-70
2023/01/13 06:07:14;;;;;;;24.55;4.28;;;8.40;99.90;;;;;;5065991;28;20072;-70
2023/01/13 06:09:41;;;;;;;19.52;5.00;;;8.40;99.90;;;;;;5068171;28;20048;-69
2023/01/13 06:12:11;;;;;;;16.58;4.13;;;8.40;99.90;;;;;;5066004;28;20048;-75
2023/01/13 06:14:39;;;;;;;17.35;4.95;;;8.30;99.90;;;;;;5085484;28;20519;-68
2023/01/13 06:17:07;;;;;;;24.27;5.72;;;8.30;99.90;;;;;;5073073;28;20040;-68
2023/01/13 06:19:34;;;;;;;19.85;4.80;;;8.20;99.90;;;;;;5085089;28;20048;-68
2023/01/13 06:22:07;;;;;;;18.13;5.43;;;8.20;99.90;;;;;;5067969;28;20124;-68
2023/01/13 06:24:33;;;;;;;21.33;4.93;;;8.30;99.90;;;;;;5085477;28;20507;-69
2023/01/13 06:27:00;;;;;;;19.23;4.57;;;8.30;99.90;;;;;;5070139;28;20111;-69
2023/01/13 06:29:29;;;;;;;14.93;4.88;;;8.30;99.90;;;;;;5087304;28;20055;-69
2023/01/13 06:31:56;;;;;;;24.90;5.15;;;8.30;99.90;;;;;;5084746;28;20051;-67
2023/01/13 06:34:24;;;;;;;25.23;5.45;;;8.30;99.90;;;;;;5066225;28;20055;-69
2023/01/13 06:36:53;;;;;;;17.48;4.93;;;8.30;99.90;;;;;;5084500;28;20048;-68
2023/01/13 06:39:22;;;;;;;23.50;5.95;;;8.30;99.90;;;;;;5085438;28;20133;-69
2023/01/13 06:44:39;;;;;;;17.23;5.55;;;8.30;99.90;;;;;;5087273;28;20538;-69
2023/01/13 06:47:06;;;;;;;23.45;5.68;;;8.10;99.90;;;;;;5067211;28;20059;-69
2023/01/13 06:49:34;;;;;;;23.95;5.80;;;8.10;99.90;;;;;;5070338;28;20056;-68
2023/01/13 06:52:01;;;;;;;20.73;4.97;;;7.90;99.90;;;;;;5078932;28;20075;-69
2023/01/13 06:54:28;;;;;;;22.10;5.25;;;7.90;99.90;;;;;;5057859;28;20101;-69
2023/01/13 06:56:54;;;;;;;24.30;5.32;;;7.80;99.90;;;;;;5062812;28;20063;-68
2023/01/13 06:59:22;;;;;;;14.60;4.85;;;7.70;99.90;;;;;;5073275;28;20518;-69
2023/01/13 07:01:50;;;;;;;18.20;5.63;;;7.70;99.90;;;;;;5065325;28;20505;-68
2023/01/13 07:04:17;;;;;;;17.42;4.90;;;7.60;99.90;;;;;;5092866;28;20051;-69
2023/01/13 07:06:44;;;;;;;24.05;4.70;;;7.60;99.90;;;;;;5071204;28;20105;-69
2023/01/13 07:09:11;;;;;;;21.08;4.82;;;7.50;99.90;;;;;;5087215;28;20060;-70
2023/01/13 07:11:38;;;;;;;21.33;5.18;;;7.50;99.90;;;;;;5087206;28;20044;-68
2023/01/13 07:16:52;;;;;;;18.25;4.93;;;7.40;99.90;;;;;;5068412;28;20052;-69
2023/01/13 07:19:22;;;;;;;19.33;4.93;;;7.30;99.90;;;;;;5090058;28;20044;-67
2023/01/13 07:21:49;;;;;;;18.83;4.47;;;7.30;99.90;;;;;;5092056;28;20068;-68
2023/01/13 07:24:16;;;;;;;20.02;4.18;;;7.30;99.90;;;;;;5089245;28;20060;-68
2023/01/13 07:26:43;;;;;;;21.83;4.45;;;7.20;99.90;;;;;;5074064;28;20400;-73
2023/01/13 07:29:10;;;;;;;13.40;4.20;;;7.20;99.90;;;;;;5073760;28;20097;-68
2023/01/13 07:31:37;;;;;;;15.25;4.60;;;7.10;99.90;;;;;;5092600;28;20043;-69
2023/01/13 07:34:06;;;;;;;19.33;5.20;;;7.10;99.90;;;;;;5075510;28;20567;-69
2023/01/13 07:36:33;;;;;;;22.77;5.55;;;7.10;99.90;;;;;;5094186;28;20133;-68
2023/01/13 07:39:00;;;;;;;17.25;4.63;;;7.10;99.90;;;;;;5076682;28;20048;-69
2023/01/13 07:44:11;;;;;;;16.25;5.55;;;7.00;99.90;;;;;;5093585;28;20044;-69
2023/01/13 07:46:39;;;;;;;18.27;4.10;;;7.00;99.90;;;;;;5094538;28;20063;-68
2023/01/13 07:49:08;;;;;;;20.80;4.97;;;6.90;99.90;;;;;;5075512;28;20052;-69
2023/01/13 07:51:36;;;;;;;26.00;4.88;;;6.90;99.90;;;;;;5094284;28;20039;-68
2023/01/13 07:54:03;;;;;;;20.27;4.72;;;6.90;99.90;;;;;;5074231;28;20048;-68
2023/01/13 07:56:30;;;;;;;23.95;5.65;;;6.90;99.90;;;;;;5093927;28;20446;-68
2023/01/13 07:58:59;;;;;;;24.92;5.53;;;7.00;99.90;;;;;;5091482;28;20163;-68
2023/01/13 08:01:27;;;;;;;22.95;5.20;;;7.00;99.90;;;;;;5093741;28;20052;-69
2023/01/13 08:03:54;;;;;;;26.05;5.35;;;7.10;99.90;;;;;;5092738;28;20048;-68
2023/01/13 08:06:23;;;;;;;22.48;5.20;;;7.10;99.90;;;;;;5075288;28;20446;-69
2023/01/13 08:23:43;;;;;;;20.75;5.80;;;7.40;99.90;;;;;;4961959;28;20070;-70
2023/01/13 08:26:12;;;;;;;20.40;5.88;;;7.40;99.90;;;;;;4931365;29;20051;-70
2023/01/13 08:28:40;;;;;;;21.05;5.90;;;7.50;99.90;;;;;;4935639;29;20111;-69
2023/01/13 08:31:08;;;;;;;16.48;5.07;;;7.50;99.90;;;;;;4955227;29;20047;-69
2023/01/13 08:33:36;;;;;;;18.17;4.68;;;7.50;99.90;;;;;;4955220;29;20054;-68
2023/01/13 08:36:04;;;;;;;16.52;4.78;;;7.50;99.90;;;;;;4935532;29;20142;-69
2023/01/13 08:38:31;;;;;;;20.38;5.32;;;7.60;99.90;;;;;;4954652;29;20126;-70
2023/01/13 08:41:00;;;;;;;19.17;4.97;;;7.60;99.90;;;;;;4953420;29;20055;-69
2023/01/13 08:43:27;;;;;;;20.20;5.32;;;7.80;99.90;;;;;;4954342;29;20054;-68
2023/01/13 08:45:58;;;;;;;17.42;4.53;;;7.80;99.90;;;;;;4955157;29;20393;-69
2023/01/13 08:48:26;;;;;;;20.70;4.95;;;7.70;99.90;;;;;;4937147;29;20078;-69
2023/01/13 08:50:53;;;;;;;29.58;6.40;;;7.80;99.90;;;;;;4937429;29;20496;-69
2023/01/13 08:53:20;;;;;;;21.58;4.97;;;7.80;99.90;;;;;;4937851;29;20079;-69
2023/01/13 08:55:47;;;;;;;15.93;4.00;;;7.80;99.90;;;;;;4937128;29;20119;-69
2023/01/13 08:58:15;;;;;;;17.58;5.15;;;7.90;99.90;;;;;;4954270;29;20704;-68
2023/01/13 09:00:44;;;;;;;18.65;4.72;;;7.80;99.90;;;;;;4937064;29;20051;-68
2023/01/13 09:03:11;;;;;;;26.90;5.97;;;7.80;99.90;;;;;;4954287;29;20053;-69
2023/01/13 09:05:38;;;;;;;22.75;6.15;;;7.70;99.90;;;;;;4954861;29;20051;-69
2023/01/13 09:08:05;;;;;;;18.98;4.57;;;7.70;99.90;;;;;;4937239;29;20047;-68
2023/01/13 09:10:32;;;;;;;21.88;5.20;;;7.60;99.90;;;;;;4936662;29;20047;-68
2023/01/13 09:13:10;;;;;;;14.20;4.93;;;7.50;99.90;;;;;;4937129;29;20059;-69
2023/01/13 09:15:39;;;;;;;25.98;5.40;;;7.50;99.90;;;;;;4937432;29;20050;-68
2023/01/13 09:18:06;;;;;;;23.27;5.80;;;7.40;99.90;;;;;;4951235;28;20107;-67
2023/01/13 09:20:33;;;;;;;19.15;4.78;;;7.30;99.90;;;;;;4937142;29;20059;-68
2023/01/13 09:23:00;;;;;;;15.68;4.63;;;7.30;99.90;;;;;;4936141;28;20049;-68
2023/01/13 09:25:27;;;;;;;15.02;3.75;;;7.20;99.90;;;;;;4972556;28;20479;-68
2023/01/13 09:27:54;;;;;;;19.85;4.32;;;7.20;99.90;;;;;;4955509;28;20051;-68
2023/01/13 09:30:21;;;;;;;18.75;5.18;;;7.20;99.90;;;;;;4954732;28;20062;-69
2023/01/13 09:34:58;;;;;;;11.82;4.25;;;7.10;99.90;;;;;;4953959;28;20098;-68
2023/01/13 09:35:35;;;;;;;17.05;4.50;;;7.10;99.90;;;;;;4954714;28;20074;-68
2023/01/13 09:38:02;;;;;;;14.85;4.70;;;7.00;99.90;;;;;;4953986;28;20043;-68
2023/01/13 09:40:29;;;;;;;25.27;5.10;;;7.00;99.90;;;;;;4928869;29;20059;-69
2023/01/13 09:45:50;;;;;;;16.63;5.30;;;7.00;99.90;;;;;;4933602;29;20529;-68
2023/01/13 09:48:23;;;;;;;23.08;4.82;;;7.10;99.90;;;;;;4929431;28;20054;-69
2023/01/13 09:51:05;;;;;;;26.90;5.65;;;7.10;99.90;;;;;;4949813;29;20552;-68
2023/01/13 09:53:37;;;;;;;18.70;4.85;;;7.10;99.90;;;;;;4934046;28;20464;-68
2023/01/13 09:56:05;;;;;;;25.52;5.35;;;7.00;99.90;;;;;;4930933;29;20055;-68
2023/01/13 09:58:33;;;;;;;21.75;5.85;;;7.00;99.90;;;;;;4952104;28;20055;-69
2023/01/13 10:01:15;;;;;;;25.05;4.85;;;7.00;99.90;;;;;;4953457;29;20415;-67
2023/01/13 10:03:44;;;;;;;12.77;4.82;;;7.00;99.90;;;;;;4932196;29;20388;-69
2023/01/13 10:06:17;;;;;;;25.05;5.53;;;7.00;99.90;;;;;;4950359;28;20058;-68
2023/01/13 10:08:47;;;;;;;17.48;5.07;;;7.00;99.90;;;;;;4948519;29;20051;-69
2023/01/13 10:14:02;;;;;;;15.50;4.25;;;7.00;99.90;;;;;;4952637;28;20047;-70
2023/01/13 10:16:40;;;;;;;20.40;5.30;;;7.00;99.90;;;;;;4930387;28;20051;-69
2023/01/13 10:19:16;;;;;;;20.08;4.70;;;7.00;99.90;;;;;;4953998;28;20050;-68
2023/01/13 10:22:13;;;;;;;16.17;4.50;;;7.10;99.90;;;;;;4952829;29;20106;-69
2023/01/13 10:24:58;;;;;;;18.42;5.03;;;7.20;99.90;;;;;;4965357;28;20051;-69
2023/01/13 10:27:31;;;;;;;18.60;4.60;;;7.30;99.90;;;;;;4971165;28;20051;-69
2023/01/13 10:29:58;;;;;;;17.80;4.35;;;7.30;99.90;;;;;;4954782;28;20046;-69
2023/01/13 10:32:25;;;;;;;18.15;4.57;;;7.30;99.90;;;;;;4971779;28;20046;-68
2023/01/13 10:34:56;;;;;;;21.95;5.95;;;7.40;99.90;;;;;;4970299;28;20499;-68
2023/01/13 10:37:25;;;;;;;14.15;4.22;;;7.40;99.90;;;;;;4982937;28;20410;-69
2023/01/13 10:39:55;;;;;;;16.33;4.57;;;7.40;99.90;;;;;;4969803;28;20058;-69
2023/01/13 10:42:24;;;;;;;18.48;5.15;;;7.50;99.90;;;;;;4968653;28;20582;-69
2023/01/13 10:44:53;;;;;;;15.23;4.82;;;7.50;99.90;;;;;;4972139;28;20142;-69
2023/01/13 10:47:23;;;;;;;14.95;5.18;;;7.50;99.90;;;;;;4953283;28;20109;-69
2023/01/13 10:50:21;;;;;;;19.40;4.47;;;7.60;99.90;;;;;;4953540;28;20459;-68
2023/01/13 10:53:00;;;;;;;19.58;5.38;;;7.70;99.90;;;;;;4950006;28;20054;-69
2023/01/13 10:55:30;;;;;;;20.38;6.03;;;7.70;99.90;;;;;;4949739;28;20464;-69
2023/01/13 10:57:57;;;;;;;24.20;4.85;;;7.80;99.90;;;;;;4971837;28;20047;-69
2023/01/13 11:00:30;;;;;;;17.73;5.10;;;7.70;99.90;;;;;;4971845;28;20051;-67
2023/01/13 11:03:21;;;;;;;12.77;4.38;;;7.70;99.90;;;;;;4970384;28;20463;-69
2023/01/13 11:05:51;;;;;;;17.92;5.88;;;7.70;99.90;;;;;;4968786;28;20114;-69
2023/01/13 11:08:21;;;;;;;15.18;3.97;;;7.80;99.90;;;;;;4969525;28;20047;-69
2023/01/13 11:10:51;;;;;;;20.77;3.72;;;7.80;99.90;;;;;;4952850;28;20105;-69
2023/01/13 11:13:21;;;;;;;;;;;7.90;99.90;;;;;;4951420;28;20094;-69
2023/01/13 11:15:55;;;;;;;13.23;3.85;;;7.90;99.90;;;;;;4969707;28;19978;-68
2023/01/13 11:18:28;;;;;;;15.45;4.35;;;7.80;99.90;;;;;;4970496;28;20051;-68
2023/01/13 11:20:58;;;;;;;16.20;5.38;;;7.80;99.90;;;;;;4970017;28;20506;-69
2023/01/13 11:23:31;;;;;;;25.77;5.72;;;7.80;99.90;;;;;;4969002;28;20058;-68
2023/01/13 11:26:02;;;;;;;20.13;5.28;;;7.80;99.90;;;;;;4969473;28;20046;-68
2023/01/13 11:28:40;;;;;;;16.40;4.47;;;7.80;99.90;;;;;;4971576;28;20047;-69
2023/01/13 11:31:14;;;;;;;15.15;4.55;;;7.80;99.90;;;;;;4945621;28;20046;-69
2023/01/13 11:33:46;;;;;;;17.55;4.20;;;7.90;99.90;;;;;;4951724;28;20050;-69
2023/01/13 11:36:18;;;;;;;14.20;4.43;;;7.90;99.90;;;;;;4953210;28;20066;-69
2023/01/13 11:38:49;;;;;;;17.33;4.32;;;8.00;99.90;;;;;;4954140;28;20054;-69
2023/01/13 11:41:36;;;;;;;24.30;4.65;;;8.10;99.90;;;;;;4954533;28;20097;-69
2023/01/13 11:44:22;;;;;;;15.77;3.83;;;8.20;99.90;;;;;;4972512;28;20054;-69
2023/01/13 11:46:50;;;;;;;19.88;4.85;;;8.30;99.90;;;;;;4973618;28;20109;-68
2023/01/13 11:49:23;;;;;;;10.20;3.42;;;8.30;99.90;;;;;;4954661;28;20117;-68
2023/01/13 11:51:59;;;;;;;18.40;4.20;;;8.40;99.90;;;;;;4972340;28;20103;-70
2023/01/13 11:54:48;;;;;;;13.98;3.05;;;8.40;99.90;;;;;;4957186;28;20047;-69
2023/01/13 11:57:52;;;;;;;21.63;4.95;;;8.50;99.90;;;;;;4956558;28;20050;-69
2023/01/13 12:00:27;;;;;;;8.05;4.05;;;8.40;99.90;;;;;;4946882;28;20058;-68
2023/01/13 12:03:18;;;;;;;17.85;4.50;;;8.30;99.90;;;;;;4955367;28;20547;-68
2023/01/13 12:06:01;;;;;;;12.73;4.35;;;8.30;99.90;;;;;;4955764;28;20063;-68
2023/01/13 12:08:46;;;;;;;12.77;3.33;;;8.30;99.90;;;;;;4955997;28;20411;-69
2023/01/13 12:11:19;;;;;;;13.15;3.25;;;8.30;99.90;;;;;;4970348;28;20139;-69
2023/01/13 12:14:08;;;;;;;14.48;3.72;;;8.30;99.90;;;;;;4972978;28;20569;-68
2023/01/13 12:16:38;;;;;;;19.33;4.13;;;8.20;99.90;;;;;;4955461;28;20068;-69
2023/01/13 12:19:27;;;;;;;14.13;3.70;;;8.40;99.90;;;;;;4956026;28;20135;-69
2023/01/13 12:22:03;;;;;;;13.95;3.70;;;8.30;99.90;;;;;;4950064;28;20050;-69
2023/01/13 12:24:37;;;;;;;13.00;3.70;;;8.40;99.90;;;;;;4956399;28;20130;-69
2023/01/13 12:27:11;;;;;;;9.57;3.10;;;8.40;99.90;;;;;;4954242;28;20055;-70
2023/01/13 12:29:39;;;;;;;19.40;3.85;;;8.50;99.90;;;;;;4957276;28;20058;-69
2023/01/13 12:32:12;;;;;;;9.50;3.25;;;8.50;99.90;;;;;;4956940;28;20106;-70
2023/01/13 12:34:49;;;;;;;17.77;3.47;;;8.50;99.90;;;;;;4972506;28;20050;-69
2023/01/13 12:37:23;;;;;;;13.65;3.50;;;8.60;99.90;;;;;;4957168;28;20046;-69
2023/01/13 12:40:03;;;;;;;11.40;4.10;;;8.70;99.90;;;;;;4956123;28;20063;-69
2023/01/13 12:45:28;;;;;;;11.60;3.35;;;9.00;99.90;;;;;;4955723;28;20046;-68
2023/01/13 12:47:56;;;;;;;13.18;3.35;;;9.00;99.90;;;;;;4972507;28;20047;-68
2023/01/13 12:50:43;;;;;;;11.55;2.90;;;8.90;99.90;;;;;;4956277;28;20055;-69
2023/01/13 12:53:33;;;;;;;12.68;3.55;;;8.90;99.90;;;;;;4973070;28;20047;-69
2023/01/13 12:56:28;;;;;;;15.23;3.20;;;8.90;99.90;;;;;;4970326;28;20086;-69
2023/01/13 12:59:31;;;;;;;8.63;2.75;;;8.90;99.90;;;;;;4973112;28;20051;-67
2023/01/13 13:02:43;;;;;;;11.05;3.30;;;8.80;99.90;;;;;;4972596;28;20109;-68
2023/01/13 13:05:34;;;;;;;7.50;2.67;;;9.00;99.90;;;;;;4914889;29;20048;-68
2023/01/13 13:08:07;;;;;;;18.67;3.60;;;9.20;99.90;;;;;;4967207;28;20135;-69
2023/01/13 13:10:37;;;;;;;11.05;3.10;;;9.50;99.90;;;;;;4955085;28;20574;-68
2023/01/13 13:13:18;;;;;;;9.60;2.88;;;9.40;99.90;;;;;;4955550;28;20058;-69
2023/01/13 13:15:47;;;;;;;14.57;3.40;;;9.20;99.90;;;;;;4972722;28;20748;-68
2023/01/13 13:18:24;;;;;;;13.00;3.10;;;9.10;99.90;;;;;;4972666;28;20569;-69
2023/01/13 13:21:03;;;;;;;14.00;3.28;;;9.10;99.90;;;;;;4970994;28;20413;-69
2023/01/13 13:23:47;;;;;;;15.80;3.40;;;9.40;99.90;;;;;;4955079;28;20484;-68
2023/01/13 13:26:41;;;;;;;7.60;2.60;;;9.80;99.90;;;;;;4972965;28;20122;-68
2023/01/13 13:29:42;;;;;;;12.65;3.15;;;9.70;99.90;;;;;;4951665;28;20213;-68
2023/01/13 13:32:51;;;;;;;15.63;3.75;;;9.50;99.90;;;;;;4972379;28;20459;-69
2023/01/13 13:35:36;;;;;;;11.30;3.42;;;9.20;99.90;;;;;;4956375;28;20504;-69
2023/01/13 13:46:47;;;;;;;8.85;2.53;;;8.60;99.90;;;;;;4956346;28;20051;-69
2023/01/13 13:49:16;;;;;;;11.75;3.58;;;8.60;99.90;;;;;;4972715;28;20105;-69
2023/01/13 13:51:48;;;;;;;25.25;3.95;;;8.60;99.90;;;;;;4971566;28;20054;-68
2023/01/13 13:54:19;;;;;;;13.45;2.78;;;8.50;99.90;;;;;;4971932;28;20098;-69
2023/01/13 13:56:47;;;;;;;14.38;3.28;;;8.60;99.90;;;;;;4971788;28;20047;-68
2023/01/13 13:59:18;;;;;;;11.63;3.08;;;8.70;99.90;;;;;;4971706;28;20055;-68
2023/01/13 14:01:50;;;;;;;;;;;8.80;99.90;;;;;;4955422;28;20077;-69
2023/01/13 14:04:19;;;;;;;13.02;3.67;;;8.70;99.90;;;;;;4953798;28;19972;-69
2023/01/13 14:06:51;;;;;;;12.03;3.20;;;8.70;99.90;;;;;;4954286;28;20128;-69
2023/01/13 14:09:20;;;;;;;10.90;3.28;;;8.60;99.90;;;;;;4972358;28;20050;-69
2023/01/13 14:11:59;;;;;;;8.82;3.25;;;8.60;99.90;;;;;;4970655;28;20113;-69
2023/01/13 14:14:26;;;;;;;10.43;3.33;;;8.60;99.90;;;;;;4955850;28;20046;-69
2023/01/13 14:16:55;;;;;;;13.13;3.65;;;8.60;99.90;;;;;;4954380;28;20544;-68
2023/01/13 14:19:34;;;;;;;9.95;3.35;;;8.60;99.90;;;;;;4954479;28;20069;-68
2023/01/13 14:22:04;;;;;;;11.10;3.38;;;8.60;99.90;;;;;;4971707;28;20047;-68